sensor_id;sensor_type;location;lat;lon;timestamp;P1;durP1;ratioP1;P2;durP2;ratioP2
42886;SDS011;29032;56.028;92.904;2023-08-07T00:01:04;6.60;;;4.27;;
42886;SDS011;29032;56.028;92.904;2023-08-07T00:06:06;6.07;;;4.40;;
42886;SDS011;29032;56.028;92.904;2023-08-07T00:11:09;8.00;;;4.17;;
42886;SDS011;29032;56.028;92.904;2023-08-07T00:16:12;8.57;;;4.37;;
42886;SDS011;29032;56.028;92.904;2023-08-07T00:21:14;7.90;;;4.30;;
42886;SDS011;29032;56.028;92.904;2023-08-07T00:26:17;7.77;;;4.73;;
42886;SDS011;29032;56.028;92.904;2023-08-07T00:31:19;6.50;;;4.03;;
42886;SDS011;29032;56.028;92.904;2023-08-07T00:36:21;6.83;;;4.40;;
42886;SDS011;29032;56.028;92.904;2023-08-07T00:41:25;7.27;;;4.27;;
42886;SDS011;29032;56.028;92.904;2023-08-07T00:46:27;8.43;;;4.33;;
42886;SDS011;29032;56.028;92.904;2023-08-07T00:51:30;5.63;;;4.20;;
42886;SDS011;29032;56.028;92.904;2023-08-07T00:56:33;9.43;;;4.30;;
42886;SDS011;29032;56.028;92.904;2023-08-07T01:01:36;4.63;;;3.80;;
42886;SDS011;29032;56.028;92.904;2023-08-07T01:06:38;7.30;;;4.43;;
42886;SDS011;29032;56.028;92.904;2023-08-07T01:11:44;7.03;;;4.03;;
42886;SDS011;29032;56.028;92.904;2023-08-07T01:16:52;4.73;;;3.77;;
42886;SDS011;29032;56.028;92.904;2023-08-07T01:22:07;4.97;;;3.77;;
42886;SDS011;29032;56.028;92.904;2023-08-07T01:27:12;6.87;;;4.03;;
42886;SDS011;29032;56.028;92.904;2023-08-07T01:32:26;8.73;;;3.90;;
42886;SDS011;29032;56.028;92.904;2023-08-07T01:37:37;6.70;;;3.63;;
42886;SDS011;29032;56.028;92.904;2023-08-07T01:42:41;7.70;;;3.42;;
42886;SDS011;29032;56.028;92.904;2023-08-07T01:47:46;7.03;;;4.07;;
42886;SDS011;29032;56.028;92.904;2023-08-07T01:52:49;5.03;;;3.53;;
42886;SDS011;29032;56.028;92.904;2023-08-07T01:57:52;5.20;;;3.90;;
42886;SDS011;29032;56.028;92.904;2023-08-07T02:02:54;7.50;;;3.90;;
42886;SDS011;29032;56.028;92.904;2023-08-07T02:07:58;4.93;;;3.90;;
42886;SDS011;29032;56.028;92.904;2023-08-07T02:13:01;4.20;;;3.47;;
42886;SDS011;29032;56.028;92.904;2023-08-07T02:18:03;5.87;;;3.40;;
42886;SDS011;29032;56.028;92.904;2023-08-07T02:23:07;4.27;;;3.73;;
42886;SDS011;29032;56.028;92.904;2023-08-07T02:28:09;5.60;;;3.50;;
42886;SDS011;29032;56.028;92.904;2023-08-07T02:33:11;6.17;;;3.40;;
42886;SDS011;29032;56.028;92.904;2023-08-07T02:38:14;8.50;;;3.23;;
42886;SDS011;29032;56.028;92.904;2023-08-07T02:43:16;12.57;;;3.70;;
42886;SDS011;29032;56.028;92.904;2023-08-07T02:48:18;6.10;;;4.00;;
42886;SDS011;29032;56.028;92.904;2023-08-07T02:53:22;12.53;;;8.60;;
42886;SDS011;29032;56.028;92.904;2023-08-07T02:58:24;7.05;;;4.82;;
42886;SDS011;29032;56.028;92.904;2023-08-07T03:03:27;5.07;;;3.97;;
42886;SDS011;29032;56.028;92.904;2023-08-07T03:08:30;7.97;;;4.03;;
42886;SDS011;29032;56.028;92.904;2023-08-07T03:13:32;5.55;;;4.45;;
42886;SDS011;29032;56.028;92.904;2023-08-07T03:18:34;5.93;;;3.72;;
42886;SDS011;29032;56.028;92.904;2023-08-07T03:23:38;6.93;;;3.72;;
42886;SDS011;29032;56.028;92.904;2023-08-07T03:28:41;6.25;;;3.75;;
42886;SDS011;29032;56.028;92.904;2023-08-07T03:33:44;8.52;;;4.28;;
42886;SDS011;29032;56.028;92.904;2023-08-07T03:38:49;7.97;;;4.00;;
42886;SDS011;29032;56.028;92.904;2023-08-07T03:43:51;9.07;;;4.13;;
42886;SDS011;29032;56.028;92.904;2023-08-07T03:48:53;9.63;;;4.65;;
42886;SDS011;29032;56.028;92.904;2023-08-07T03:53:57;20.05;;;6.15;;
42886;SDS011;29032;56.028;92.904;2023-08-07T03:58:59;6.55;;;4.60;;
42886;SDS011;29032;56.028;92.904;2023-08-07T04:04:01;7.25;;;3.97;;
42886;SDS011;29032;56.028;92.904;2023-08-07T04:09:06;6.47;;;4.07;;
42886;SDS011;29032;56.028;92.904;2023-08-07T04:14:08;7.38;;;4.55;;
42886;SDS011;29032;56.028;92.904;2023-08-07T04:19:10;8.77;;;4.45;;
42886;SDS011;29032;56.028;92.904;2023-08-07T04:24:14;7.97;;;4.13;;
42886;SDS011;29032;56.028;92.904;2023-08-07T04:29:16;5.03;;;4.03;;
42886;SDS011;29032;56.028;92.904;2023-08-07T04:34:18;5.93;;;4.13;;
42886;SDS011;29032;56.028;92.904;2023-08-07T04:39:21;4.78;;;3.83;;
42886;SDS011;29032;56.028;92.904;2023-08-07T04:44:24;3.97;;;3.20;;
42886;SDS011;29032;56.028;92.904;2023-08-07T04:49:26;4.40;;;2.88;;
42886;SDS011;29032;56.028;92.904;2023-08-07T04:54:29;3.20;;;2.83;;
42886;SDS011;29032;56.028;92.904;2023-08-07T04:59:31;8.10;;;2.92;;
42886;SDS011;29032;56.028;92.904;2023-08-07T05:04:33;3.47;;;2.60;;
42886;SDS011;29032;56.028;92.904;2023-08-07T05:09:37;3.08;;;2.60;;
42886;SDS011;29032;56.028;92.904;2023-08-07T05:14:39;2.83;;;2.30;;
42886;SDS011;29032;56.028;92.904;2023-08-07T05:19:41;3.72;;;2.38;;
42886;SDS011;29032;56.028;92.904;2023-08-07T05:24:44;4.65;;;2.78;;
42886;SDS011;29032;56.028;92.904;2023-08-07T05:29:47;2.75;;;2.50;;
42886;SDS011;29032;56.028;92.904;2023-08-07T05:34:48;6.43;;;2.40;;
42886;SDS011;29032;56.028;92.904;2023-08-07T05:39:52;4.30;;;2.75;;
42886;SDS011;29032;56.028;92.904;2023-08-07T05:44:54;3.85;;;2.17;;
42886;SDS011;29032;56.028;92.904;2023-08-07T05:49:56;4.00;;;2.10;;
42886;SDS011;29032;56.028;92.904;2023-08-07T05:55:00;4.40;;;2.63;;
42886;SDS011;29032;56.028;92.904;2023-08-07T06:00:02;3.92;;;2.50;;
42886;SDS011;29032;56.028;92.904;2023-08-07T06:05:13;3.35;;;2.45;;
42886;SDS011;29032;56.028;92.904;2023-08-07T06:10:16;2.63;;;2.30;;
42886;SDS011;29032;56.028;92.904;2023-08-07T06:15:18;2.80;;;2.20;;
42886;SDS011;29032;56.028;92.904;2023-08-07T06:20:21;3.75;;;2.17;;
42886;SDS011;29032;56.028;92.904;2023-08-07T06:25:24;3.70;;;2.28;;
42886;SDS011;29032;56.028;92.904;2023-08-07T06:30:26;3.25;;;2.40;;
42886;SDS011;29032;56.028;92.904;2023-08-07T06:35:28;4.28;;;2.58;;
42886;SDS011;29032;56.028;92.904;2023-08-07T06:40:32;4.15;;;2.50;;
42886;SDS011;29032;56.028;92.904;2023-08-07T06:45:36;5.00;;;2.40;;
42886;SDS011;29032;56.028;92.904;2023-08-07T06:50:38;2.47;;;2.28;;
42886;SDS011;29032;56.028;92.904;2023-08-07T06:55:42;3.83;;;2.20;;
42886;SDS011;29032;56.028;92.904;2023-08-07T07:00:44;4.88;;;2.40;;
42886;SDS011;29032;56.028;92.904;2023-08-07T07:05:48;3.90;;;2.30;;
42886;SDS011;29032;56.028;92.904;2023-08-07T07:10:52;6.35;;;2.08;;
42886;SDS011;29032;56.028;92.904;2023-08-07T07:15:54;3.05;;;2.33;;
42886;SDS011;29032;56.028;92.904;2023-08-07T07:20:57;3.88;;;2.10;;
42886;SDS011;29032;56.028;92.904;2023-08-07T07:26:00;4.78;;;2.20;;
42886;SDS011;29032;56.028;92.904;2023-08-07T07:31:02;2.97;;;2.35;;
42886;SDS011;29032;56.028;92.904;2023-08-07T07:36:04;3.92;;;2.38;;
42886;SDS011;29032;56.028;92.904;2023-08-07T07:41:08;3.50;;;2.47;;
42886;SDS011;29032;56.028;92.904;2023-08-07T07:46:10;2.80;;;2.60;;
42886;SDS011;29032;56.028;92.904;2023-08-07T07:51:12;3.80;;;2.63;;
42886;SDS011;29032;56.028;92.904;2023-08-07T07:56:15;4.10;;;2.53;;
42886;SDS011;29032;56.028;92.904;2023-08-07T08:01:17;3.53;;;2.80;;
42886;SDS011;29032;56.028;92.904;2023-08-07T08:06:19;3.53;;;2.47;;
42886;SDS011;29032;56.028;92.904;2023-08-07T08:11:23;2.72;;;2.50;;
42886;SDS011;29032;56.028;92.904;2023-08-07T08:16:25;5.57;;;2.60;;
42886;SDS011;29032;56.028;92.904;2023-08-07T08:21:27;4.20;;;2.72;;
42886;SDS011;29032;56.028;92.904;2023-08-07T08:26:31;4.65;;;2.88;;
42886;SDS011;29032;56.028;92.904;2023-08-07T08:31:33;4.15;;;2.65;;
42886;SDS011;29032;56.028;92.904;2023-08-07T08:36:35;4.40;;;3.20;;
42886;SDS011;29032;56.028;92.904;2023-08-07T08:41:38;3.83;;;2.80;;
42886;SDS011;29032;56.028;92.904;2023-08-07T08:46:40;6.22;;;3.10;;
42886;SDS011;29032;56.028;92.904;2023-08-07T08:51:43;4.68;;;2.85;;
42886;SDS011;29032;56.028;92.904;2023-08-07T08:56:47;3.25;;;2.95;;
42886;SDS011;29032;56.028;92.904;2023-08-07T09:01:50;3.50;;;2.72;;
42886;SDS011;29032;56.028;92.904;2023-08-07T09:06:53;4.93;;;2.97;;
42886;SDS011;29032;56.028;92.904;2023-08-07T09:11:56;13.65;;;3.97;;
42886;SDS011;29032;56.028;92.904;2023-08-07T09:17:00;4.03;;;3.40;;
42886;SDS011;29032;56.028;92.904;2023-08-07T09:22:02;5.88;;;3.20;;
42886;SDS011;29032;56.028;92.904;2023-08-07T09:27:08;5.45;;;3.10;;
42886;SDS011;29032;56.028;92.904;2023-08-07T09:32:11;3.13;;;2.80;;
42886;SDS011;29032;56.028;92.904;2023-08-07T09:37:14;3.53;;;2.95;;
42886;SDS011;29032;56.028;92.904;2023-08-07T09:42:17;8.40;;;3.38;;
42886;SDS011;29032;56.028;92.904;2023-08-07T09:47:19;4.15;;;3.30;;
42886;SDS011;29032;56.028;92.904;2023-08-07T09:52:21;7.30;;;5.05;;
42886;SDS011;29032;56.028;92.904;2023-08-07T09:57:27;10.48;;;6.75;;
42886;SDS011;29032;56.028;92.904;2023-08-07T10:02:29;6.30;;;4.20;;
42886;SDS011;29032;56.028;92.904;2023-08-07T10:07:31;3.85;;;3.45;;
42886;SDS011;29032;56.028;92.904;2023-08-07T10:12:35;6.43;;;4.13;;
42886;SDS011;29032;56.028;92.904;2023-08-07T10:17:37;4.47;;;3.78;;
42886;SDS011;29032;56.028;92.904;2023-08-07T10:22:39;4.88;;;3.47;;
42886;SDS011;29032;56.028;92.904;2023-08-07T10:27:45;4.00;;;3.42;;
42886;SDS011;29032;56.028;92.904;2023-08-07T10:32:50;5.68;;;3.95;;
42886;SDS011;29032;56.028;92.904;2023-08-07T10:37:53;4.22;;;3.80;;
42886;SDS011;29032;56.028;92.904;2023-08-07T10:42:57;7.30;;;4.15;;
42886;SDS011;29032;56.028;92.904;2023-08-07T10:48:01;4.60;;;3.80;;
42886;SDS011;29032;56.028;92.904;2023-08-07T10:53:18;3.85;;;3.38;;
42886;SDS011;29032;56.028;92.904;2023-08-07T10:58:23;4.75;;;4.00;;
42886;SDS011;29032;56.028;92.904;2023-08-07T11:03:27;10.23;;;4.57;;
42886;SDS011;29032;56.028;92.904;2023-08-07T11:08:29;6.03;;;4.25;;
42886;SDS011;29032;56.028;92.904;2023-08-07T11:13:33;10.75;;;4.30;;
42886;SDS011;29032;56.028;92.904;2023-08-07T11:18:36;23.80;;;6.07;;
42886;SDS011;29032;56.028;92.904;2023-08-07T11:23:39;7.40;;;4.45;;
42886;SDS011;29032;56.028;92.904;2023-08-07T11:28:42;10.15;;;5.40;;
42886;SDS011;29032;56.028;92.904;2023-08-07T11:33:44;8.45;;;5.00;;
42886;SDS011;29032;56.028;92.904;2023-08-07T11:38:47;13.25;;;5.40;;
42886;SDS011;29032;56.028;92.904;2023-08-07T11:43:50;10.25;;;6.07;;
42886;SDS011;29032;56.028;92.904;2023-08-07T11:48:52;21.42;;;7.63;;
42886;SDS011;29032;56.028;92.904;2023-08-07T11:53:54;13.98;;;7.85;;
42886;SDS011;29032;56.028;92.904;2023-08-07T11:58:58;15.98;;;9.43;;
42886;SDS011;29032;56.028;92.904;2023-08-07T12:04:08;14.23;;;9.13;;
42886;SDS011;29032;56.028;92.904;2023-08-07T12:09:11;14.60;;;8.40;;
42886;SDS011;29032;56.028;92.904;2023-08-07T12:14:14;16.48;;;10.35;;
42886;SDS011;29032;56.028;92.904;2023-08-07T12:19:17;18.45;;;10.98;;
42886;SDS011;29032;56.028;92.904;2023-08-07T12:24:19;16.05;;;11.00;;
42886;SDS011;29032;56.028;92.904;2023-08-07T12:29:22;15.32;;;9.68;;
42886;SDS011;29032;56.028;92.904;2023-08-07T12:34:24;11.32;;;7.35;;
42886;SDS011;29032;56.028;92.904;2023-08-07T12:39:26;13.30;;;7.60;;
42886;SDS011;29032;56.028;92.904;2023-08-07T12:44:30;8.10;;;5.60;;
42886;SDS011;29032;56.028;92.904;2023-08-07T12:49:32;9.65;;;5.43;;
42886;SDS011;29032;56.028;92.904;2023-08-07T12:54:34;9.55;;;4.50;;
42886;SDS011;29032;56.028;92.904;2023-08-07T12:59:37;5.93;;;4.43;;
42886;SDS011;29032;56.028;92.904;2023-08-07T13:04:39;8.80;;;4.20;;
42886;SDS011;29032;56.028;92.904;2023-08-07T13:09:41;6.55;;;4.55;;
42886;SDS011;29032;56.028;92.904;2023-08-07T13:14:45;9.23;;;4.40;;
42886;SDS011;29032;56.028;92.904;2023-08-07T13:19:47;8.25;;;4.45;;
42886;SDS011;29032;56.028;92.904;2023-08-07T13:24:49;10.75;;;5.00;;
42886;SDS011;29032;56.028;92.904;2023-08-07T13:29:52;10.93;;;5.82;;
42886;SDS011;29032;56.028;92.904;2023-08-07T13:34:54;7.63;;;4.78;;
42886;SDS011;29032;56.028;92.904;2023-08-07T13:39:56;6.30;;;4.20;;
42886;SDS011;29032;56.028;92.904;2023-08-07T13:45:00;9.05;;;5.10;;
42886;SDS011;29032;56.028;92.904;2023-08-07T13:50:02;6.63;;;4.47;;
42886;SDS011;29032;56.028;92.904;2023-08-07T13:55:05;7.35;;;4.55;;
42886;SDS011;29032;56.028;92.904;2023-08-07T14:00:10;7.88;;;4.30;;
42886;SDS011;29032;56.028;92.904;2023-08-07T14:05:13;9.50;;;5.22;;
42886;SDS011;29032;56.028;92.904;2023-08-07T14:10:15;9.10;;;4.82;;
42886;SDS011;29032;56.028;92.904;2023-08-07T14:15:18;9.52;;;4.88;;
42886;SDS011;29032;56.028;92.904;2023-08-07T14:20:20;7.35;;;4.57;;
42886;SDS011;29032;56.028;92.904;2023-08-07T14:25:23;8.95;;;4.50;;
42886;SDS011;29032;56.028;92.904;2023-08-07T14:30:26;11.52;;;4.35;;
42886;SDS011;29032;56.028;92.904;2023-08-07T14:35:28;8.27;;;4.90;;
42886;SDS011;29032;56.028;92.904;2023-08-07T14:40:30;8.52;;;4.00;;
42886;SDS011;29032;56.028;92.904;2023-08-07T14:45:34;8.70;;;4.25;;
42886;SDS011;29032;56.028;92.904;2023-08-07T14:50:36;7.93;;;4.35;;
42886;SDS011;29032;56.028;92.904;2023-08-07T14:55:38;11.50;;;5.32;;
42886;SDS011;29032;56.028;92.904;2023-08-07T15:00:41;16.45;;;7.05;;
42886;SDS011;29032;56.028;92.904;2023-08-07T15:05:43;17.20;;;7.47;;
42886;SDS011;29032;56.028;92.904;2023-08-07T15:10:45;19.98;;;9.95;;
42886;SDS011;29032;56.028;92.904;2023-08-07T15:15:49;24.27;;;9.73;;
42886;SDS011;29032;56.028;92.904;2023-08-07T15:20:51;21.73;;;10.27;;
42886;SDS011;29032;56.028;92.904;2023-08-07T15:25:53;19.75;;;9.48;;
42886;SDS011;29032;56.028;92.904;2023-08-07T15:30:56;20.48;;;9.35;;
42886;SDS011;29032;56.028;92.904;2023-08-07T15:35:59;18.02;;;8.73;;
42886;SDS011;29032;56.028;92.904;2023-08-07T15:41:01;13.98;;;7.13;;
42886;SDS011;29032;56.028;92.904;2023-08-07T15:46:05;16.30;;;7.13;;
42886;SDS011;29032;56.028;92.904;2023-08-07T15:51:07;18.55;;;7.28;;
42886;SDS011;29032;56.028;92.904;2023-08-07T15:56:09;14.45;;;6.78;;
42886;SDS011;29032;56.028;92.904;2023-08-07T16:01:12;13.13;;;6.90;;
42886;SDS011;29032;56.028;92.904;2023-08-07T16:06:14;15.00;;;7.63;;
42886;SDS011;29032;56.028;92.904;2023-08-07T16:11:16;17.02;;;7.68;;
42886;SDS011;29032;56.028;92.904;2023-08-07T16:16:20;14.50;;;7.28;;
42886;SDS011;29032;56.028;92.904;2023-08-07T16:21:22;14.07;;;7.72;;
42886;SDS011;29032;56.028;92.904;2023-08-07T16:26:24;13.13;;;7.82;;
42886;SDS011;29032;56.028;92.904;2023-08-07T16:31:28;15.60;;;8.50;;
42886;SDS011;29032;56.028;92.904;2023-08-07T16:36:31;15.32;;;8.52;;
42886;SDS011;29032;56.028;92.904;2023-08-07T16:41:33;18.50;;;8.85;;
42886;SDS011;29032;56.028;92.904;2023-08-07T16:46:37;15.95;;;8.18;;
42886;SDS011;29032;56.028;92.904;2023-08-07T16:51:39;12.60;;;8.05;;
42886;SDS011;29032;56.028;92.904;2023-08-07T16:56:41;12.55;;;8.13;;
42886;SDS011;29032;56.028;92.904;2023-08-07T17:01:44;14.40;;;8.23;;
42886;SDS011;29032;56.028;92.904;2023-08-07T17:06:46;16.88;;;9.02;;
42886;SDS011;29032;56.028;92.904;2023-08-07T17:11:48;12.98;;;8.55;;
42886;SDS011;29032;56.028;92.904;2023-08-07T17:16:51;15.63;;;8.60;;
42886;SDS011;29032;56.028;92.904;2023-08-07T17:21:54;11.68;;;7.70;;
42886;SDS011;29032;56.028;92.904;2023-08-07T17:26:56;16.30;;;8.15;;
42886;SDS011;29032;56.028;92.904;2023-08-07T17:31:59;12.30;;;7.07;;
42886;SDS011;29032;56.028;92.904;2023-08-07T17:37:01;11.15;;;7.25;;
42886;SDS011;29032;56.028;92.904;2023-08-07T17:42:03;10.77;;;6.32;;
42886;SDS011;29032;56.028;92.904;2023-08-07T17:47:07;9.10;;;6.80;;
42886;SDS011;29032;56.028;92.904;2023-08-07T17:52:09;10.85;;;6.20;;
42886;SDS011;29032;56.028;92.904;2023-08-07T17:57:11;9.40;;;7.10;;
42886;SDS011;29032;56.028;92.904;2023-08-07T18:02:15;12.00;;;7.78;;
42886;SDS011;29032;56.028;92.904;2023-08-07T18:07:17;14.20;;;7.00;;
42886;SDS011;29032;56.028;92.904;2023-08-07T18:12:19;15.90;;;7.22;;
42886;SDS011;29032;56.028;92.904;2023-08-07T18:17:22;10.35;;;7.10;;
42886;SDS011;29032;56.028;92.904;2023-08-07T18:22:25;12.65;;;7.90;;
42886;SDS011;29032;56.028;92.904;2023-08-07T18:27:27;15.55;;;8.70;;
42886;SDS011;29032;56.028;92.904;2023-08-07T18:32:30;13.95;;;8.10;;
42886;SDS011;29032;56.028;92.904;2023-08-07T18:37:32;11.48;;;8.55;;
42886;SDS011;29032;56.028;92.904;2023-08-07T18:42:34;12.23;;;9.25;;
42886;SDS011;29032;56.028;92.904;2023-08-07T18:47:38;11.30;;;8.57;;
42886;SDS011;29032;56.028;92.904;2023-08-07T18:52:40;12.23;;;7.85;;
42886;SDS011;29032;56.028;92.904;2023-08-07T18:57:42;12.77;;;8.30;;
42886;SDS011;29032;56.028;92.904;2023-08-07T19:02:45;11.13;;;7.75;;
42886;SDS011;29032;56.028;92.904;2023-08-07T19:07:47;14.68;;;8.15;;
42886;SDS011;29032;56.028;92.904;2023-08-07T19:12:49;9.98;;;8.02;;
42886;SDS011;29032;56.028;92.904;2023-08-07T19:17:53;14.85;;;8.75;;
42886;SDS011;29032;56.028;92.904;2023-08-07T19:22:55;11.35;;;7.78;;
42886;SDS011;29032;56.028;92.904;2023-08-07T19:27:57;11.93;;;7.55;;
42886;SDS011;29032;56.028;92.904;2023-08-07T19:33:00;13.45;;;8.20;;
42886;SDS011;29032;56.028;92.904;2023-08-07T19:38:03;11.32;;;7.70;;
42886;SDS011;29032;56.028;92.904;2023-08-07T19:43:05;11.45;;;7.75;;
42886;SDS011;29032;56.028;92.904;2023-08-07T19:48:08;12.25;;;7.53;;
42886;SDS011;29032;56.028;92.904;2023-08-07T19:53:10;9.48;;;7.22;;
42886;SDS011;29032;56.028;92.904;2023-08-07T19:58:12;10.07;;;7.40;;
42886;SDS011;29032;56.028;92.904;2023-08-07T20:03:16;9.38;;;7.13;;
42886;SDS011;29032;56.028;92.904;2023-08-07T20:08:18;9.15;;;6.20;;
42886;SDS011;29032;56.028;92.904;2023-08-07T20:13:20;8.40;;;6.45;;
42886;SDS011;29032;56.028;92.904;2023-08-07T20:18:24;9.10;;;6.43;;
42886;SDS011;29032;56.028;92.904;2023-08-07T20:23:25;7.70;;;6.20;;
42886;SDS011;29032;56.028;92.904;2023-08-07T20:28:27;9.48;;;5.95;;
42886;SDS011;29032;56.028;92.904;2023-08-07T20:33:31;9.57;;;6.15;;
42886;SDS011;29032;56.028;92.904;2023-08-07T20:38:33;8.93;;;6.45;;
42886;SDS011;29032;56.028;92.904;2023-08-07T20:43:35;9.60;;;6.45;;
42886;SDS011;29032;56.028;92.904;2023-08-07T20:48:39;8.18;;;6.47;;
42886;SDS011;29032;56.028;92.904;2023-08-07T20:53:41;10.57;;;7.15;;
42886;SDS011;29032;56.028;92.904;2023-08-07T20:58:43;11.07;;;6.95;;
42886;SDS011;29032;56.028;92.904;2023-08-07T21:03:46;11.20;;;7.30;;
42886;SDS011;29032;56.028;92.904;2023-08-07T21:08:48;12.80;;;8.27;;
42886;SDS011;29032;56.028;92.904;2023-08-07T21:13:50;10.38;;;7.55;;
42886;SDS011;29032;56.028;92.904;2023-08-07T21:18:54;11.25;;;6.93;;
42886;SDS011;29032;56.028;92.904;2023-08-07T21:23:56;11.20;;;6.68;;
42886;SDS011;29032;56.028;92.904;2023-08-07T21:28:58;10.57;;;7.15;;
42886;SDS011;29032;56.028;92.904;2023-08-07T21:34:01;11.60;;;7.38;;
42886;SDS011;29032;56.028;92.904;2023-08-07T21:39:03;10.52;;;7.70;;
42886;SDS011;29032;56.028;92.904;2023-08-07T21:44:05;9.02;;;7.03;;
42886;SDS011;29032;56.028;92.904;2023-08-07T21:49:09;10.95;;;6.65;;
42886;SDS011;29032;56.028;92.904;2023-08-07T21:54:11;10.60;;;6.75;;
42886;SDS011;29032;56.028;92.904;2023-08-07T21:59:13;9.23;;;6.97;;
42886;SDS011;29032;56.028;92.904;2023-08-07T22:04:16;10.00;;;7.20;;
42886;SDS011;29032;56.028;92.904;2023-08-07T22:09:18;10.40;;;6.68;;
42886;SDS011;29032;56.028;92.904;2023-08-07T22:14:20;11.25;;;6.95;;
42886;SDS011;29032;56.028;92.904;2023-08-07T22:19:24;9.40;;;6.80;;
42886;SDS011;29032;56.028;92.904;2023-08-07T22:24:26;9.27;;;6.65;;
42886;SDS011;29032;56.028;92.904;2023-08-07T22:29:28;10.63;;;6.82;;
42886;SDS011;29032;56.028;92.904;2023-08-07T22:34:31;12.48;;;6.75;;
42886;SDS011;29032;56.028;92.904;2023-08-07T22:39:34;11.23;;;7.00;;
42886;SDS011;29032;56.028;92.904;2023-08-07T22:44:36;8.57;;;7.10;;
42886;SDS011;29032;56.028;92.904;2023-08-07T22:49:39;13.60;;;7.40;;
42886;SDS011;29032;56.028;92.904;2023-08-07T22:54:41;12.00;;;7.45;;
42886;SDS011;29032;56.028;92.904;2023-08-07T22:59:43;12.35;;;7.80;;
42886;SDS011;29032;56.028;92.904;2023-08-07T23:04:47;10.18;;;7.22;;
42886;SDS011;29032;56.028;92.904;2023-08-07T23:09:49;9.90;;;6.72;;
42886;SDS011;29032;56.028;92.904;2023-08-07T23:14:51;8.32;;;6.78;;
42886;SDS011;29032;56.028;92.904;2023-08-07T23:19:54;10.32;;;6.65;;
42886;SDS011;29032;56.028;92.904;2023-08-07T23:24:56;8.18;;;6.47;;
42886;SDS011;29032;56.028;92.904;2023-08-07T23:29:58;10.00;;;7.22;;
42886;SDS011;29032;56.028;92.904;2023-08-07T23:35:02;9.20;;;6.97;;
42886;SDS011;29032;56.028;92.904;2023-08-07T23:40:05;10.30;;;7.20;;
42886;SDS011;29032;56.028;92.904;2023-08-07T23:45:08;11.93;;;7.75;;
42886;SDS011;29032;56.028;92.904;2023-08-07T23:50:12;11.68;;;7.70;;
42886;SDS011;29032;56.028;92.904;2023-08-07T23:55:14;13.73;;;8.15;;
